Time;durP1;ratioP1;P1;durP2;ratioP2;P2;SDS_P1;SDS_P2;PMS_P1;PMS_P2;Temp;Humidity;BMP_temperature;BMP_pressure;BME280_temperature;BME280_humidity;BME280_pressure;Samples;Min_cycle;Max_cycle;Signal;HPM_P1;HPM_P2
2022/06/14 00:00:54;;;;;;;120.20;18.80;;;;;;;;;;5005608;28;20109;-59
2022/06/14 00:03:40;;;;;;;133.70;17.95;;;;;;;;;;5006778;28;20029;-59
2022/06/14 00:06:09;;;;;;;106.32;18.17;;;;;;;;;;4989032;28;20026;-59
2022/06/14 00:08:36;;;;;;;120.43;17.52;;;;;;;;;;5008853;28;20527;-59
2022/06/14 00:11:09;;;;;;;131.35;19.85;;;;;;;;;;5008293;28;20034;-59
2022/06/14 00:13:36;;;;;;;139.02;20.17;;;;;;;;;;5005050;28;20450;-57
2022/06/14 00:16:03;;;;;;;129.05;18.92;;;;;;;;;;5006274;28;20026;-60
2022/06/14 00:18:30;;;;;;;142.45;21.45;;;;;;;;;;4989729;28;20483;-60
2022/06/14 00:20:57;;;;;;;141.73;19.90;;;;;;;;;;5007730;28;20027;-59
2022/06/14 00:23:24;;;;;;;152.65;22.98;;;;;;;;;;5006125;28;20045;-60
2022/06/14 00:25:53;;;;;;;178.90;31.23;;;;;;;;;;5001817;28;20033;-61
2022/06/14 00:28:21;;;;;;;208.10;39.58;;;;;;;;;;5005605;28;20508;-60
2022/06/14 00:30:49;;;;;;;227.13;45.15;;;;;;;;;;4998173;28;20093;-60
2022/06/14 00:33:17;;;;;;;257.80;50.28;;;;;;;;;;4991227;28;20025;-59
2022/06/14 00:35:44;;;;;;;248.02;50.42;;;;;;;;;;4999919;28;20038;-59
2022/06/14 00:38:15;;;;;;;238.10;48.50;;;;;;;;;;5001044;28;20372;-59
2022/06/14 00:40:42;;;;;;;219.60;46.25;;;;;;;;;;4997700;28;20057;-59
2022/06/14 00:43:15;;;;;;;225.85;44.17;;;;;;;;;;5006282;28;20046;-60
2022/06/14 00:45:41;;;;;;;;;;;;;;;;;;4999720;28;20038;-60
2022/06/14 00:51:29;;;;;;;182.77;39.90;;;;;;;;;;4996964;28;20088;-60
2022/06/14 00:57:24;;;;;;;193.70;43.78;;;;;;;;;;5003051;28;20042;-59
2022/06/14 00:59:59;;;;;;;185.68;41.53;;;;;;;;;;4991678;28;20048;-58
2022/06/14 01:02:31;;;;;;;187.23;40.22;;;;;;;;;;5002772;28;20056;-59
2022/06/14 01:05:00;;;;;;;182.15;42.20;;;;;;;;;;5008609;28;20040;-59
2022/06/14 01:07:36;;;;;;;171.38;39.42;;;;;;;;;;5004041;28;20080;-59
2022/06/14 01:10:03;;;;;;;183.60;38.38;;;;;;;;;;5007143;28;20022;-58
2022/06/14 01:12:35;;;;;;;170.13;36.50;;;;;;;;;;4988050;28;20030;-58
2022/06/14 01:15:06;;;;;;;153.43;37.20;;;;;;;;;;5005550;28;20026;-58
2022/06/14 01:17:43;;;;;;;154.48;34.65;;;;;;;;;;5009033;28;20029;-59
2022/06/14 01:20:11;;;;;;;140.55;32.42;;;;;;;;;;5002886;28;20022;-60
2022/06/14 01:22:39;;;;;;;144.18;32.17;;;;;;;;;;5003779;28;20038;-59
2022/06/14 01:25:07;;;;;;;147.60;33.95;;;;;;;;;;4987420;28;20105;-59
2022/06/14 01:27:35;;;;;;;159.40;34.50;;;;;;;;;;5011329;28;20473;-60
2022/06/14 01:30:07;;;;;;;160.25;31.63;;;;;;;;;;5009914;28;20038;-59
2022/06/14 01:32:36;;;;;;;139.77;29.80;;;;;;;;;;4999794;28;20145;-59
2022/06/14 01:35:06;;;;;;;144.40;31.23;;;;;;;;;;5005939;28;20032;-59
2022/06/14 01:37:34;;;;;;;162.52;30.63;;;;;;;;;;5002125;28;20112;-60
2022/06/14 01:40:02;;;;;;;162.95;31.70;;;;;;;;;;5005543;28;20022;-60
2022/06/14 01:42:38;;;;;;;144.80;31.30;;;;;;;;;;5003707;28;20031;-59
2022/06/14 01:48:25;;;;;;;124.15;30.02;;;;;;;;;;4985792;28;20093;-46
2022/06/14 01:54:15;;;;;;;115.13;26.70;;;;;;;;;;4966478;28;20464;-45
2022/06/14 01:56:49;;;;;;;114.28;27.10;;;;;;;;;;5031592;28;20037;-51
2022/06/14 01:59:30;;;;;;;111.03;26.80;;;;;;;;;;5030224;28;20112;-53
2022/06/14 02:02:05;;;;;;;108.03;25.80;;;;;;;;;;5031839;28;20104;-48
2022/06/14 02:05:11;;;;;;;106.05;25.38;;;;;;;;;;5043448;28;20104;-47
2022/06/14 02:07:47;;;;;;;96.72;24.85;;;;;;;;;;4921450;29;20548;-48
2022/06/14 02:10:14;;;;;;;112.22;24.58;;;;;;;;;;4930417;29;20047;-51
2022/06/14 02:12:41;;;;;;;102.00;24.30;;;;;;;;;;4994752;28;20445;-49
2022/06/14 02:15:17;;;;;;;93.95;24.90;;;;;;;;;;5043366;28;20116;-49
2022/06/14 02:17:50;;;;;;;87.07;21.48;;;;;;;;;;5031341;28;20033;-47
2022/06/14 02:20:22;;;;;;;99.70;23.92;;;;;;;;;;5031703;28;20049;-52
2022/06/14 02:22:54;;;;;;;101.75;23.90;;;;;;;;;;5044951;28;20029;-47
2022/06/14 02:25:30;;;;;;;84.00;21.98;;;;;;;;;;5051230;28;20021;-48
2022/06/14 02:28:20;;;;;;;72.90;20.42;;;;;;;;;;5036484;28;20082;-48
2022/06/14 02:30:50;;;;;;;88.07;22.90;;;;;;;;;;5043791;28;20082;-45
2022/06/14 02:33:23;;;;;;;82.93;20.92;;;;;;;;;;5048489;28;20032;-49
2022/06/14 02:35:57;;;;;;;83.32;20.88;;;;;;;;;;5050676;28;20049;-47
2022/06/14 02:38:42;;;;;;;79.03;19.20;;;;;;;;;;5051349;28;20063;-46
2022/06/14 02:41:09;;;;;;;79.22;19.88;;;;;;;;;;5050595;28;20033;-47
2022/06/14 02:43:56;;;;;;;72.82;19.48;;;;;;;;;;5050794;28;20517;-48
2022/06/14 02:46:31;;;;;;;69.00;19.73;;;;;;;;;;5020451;28;20053;-47
2022/06/14 02:49:24;;;;;;;76.50;20.27;;;;;;;;;;5050988;28;20074;-48
2022/06/14 02:51:50;;;;;;;;;;;;;;;;;;5030387;28;20040;-50
2022/06/14 02:54:22;;;;;;;65.70;18.95;;;;;;;;;;5052891;28;19940;-49
2022/06/14 02:56:51;;;;;;;66.13;18.55;;;;;;;;;;5051795;28;20525;-50
2022/06/14 02:59:27;;;;;;;56.33;16.48;;;;;;;;;;5051192;28;20075;-48
2022/06/14 03:02:07;;;;;;;61.75;17.35;;;;;;;;;;5051489;28;20029;-48
2022/06/14 03:04:34;;;;;;;61.33;17.45;;;;;;;;;;5051275;28;20469;-48
2022/06/14 03:07:05;;;;;;;56.65;16.90;;;;;;;;;;5051081;28;20025;-47
2022/06/14 03:09:33;;;;;;;60.28;16.70;;;;;;;;;;5051974;28;20036;-47
2022/06/14 03:12:06;;;;;;;51.08;15.45;;;;;;;;;;5050861;28;20036;-47
2022/06/14 03:14:51;;;;;;;65.20;16.50;;;;;;;;;;5051037;28;20032;-46
2022/06/14 03:17:27;;;;;;;55.30;15.45;;;;;;;;;;5051220;28;20057;-47
2022/06/14 03:20:09;;;;;;;50.17;15.68;;;;;;;;;;5051205;28;20048;-46
2022/06/14 03:22:51;;;;;;;57.65;15.50;;;;;;;;;;5051004;28;20036;-45
2022/06/14 03:25:18;;;;;;;50.00;14.85;;;;;;;;;;5053364;28;20037;-45
2022/06/14 03:27:51;;;;;;;54.50;15.18;;;;;;;;;;5055343;28;20025;-49
2022/06/14 03:30:41;;;;;;;60.35;15.50;;;;;;;;;;5054927;28;20033;-46
2022/06/14 03:33:26;;;;;;;42.20;14.18;;;;;;;;;;5026386;28;20040;-45
2022/06/14 03:35:55;;;;;;;42.47;14.13;;;;;;;;;;5054018;28;20017;-44
2022/06/14 03:38:31;;;;;;;41.35;13.02;;;;;;;;;;5054909;28;20025;-46
2022/06/14 03:40:58;;;;;;;46.97;13.07;;;;;;;;;;5054980;28;20048;-46
2022/06/14 03:43:25;;;;;;;39.40;13.50;;;;;;;;;;5053979;28;20194;-50
2022/06/14 03:45:58;;;;;;;46.95;13.48;;;;;;;;;;5054493;28;20179;-48
2022/06/14 03:48:26;;;;;;;40.22;11.93;;;;;;;;;;5054943;28;20064;-47
2022/06/14 03:51:03;;;;;;;36.47;11.45;;;;;;;;;;5054523;28;20021;-48
2022/06/14 03:53:45;;;;;;;35.55;11.70;;;;;;;;;;5053868;28;20835;-49
2022/06/14 03:56:18;;;;;;;34.30;11.32;;;;;;;;;;5053711;28;20040;-48
2022/06/14 03:58:56;;;;;;;35.70;11.52;;;;;;;;;;5037026;28;20506;-48
2022/06/14 04:01:26;;;;;;;39.92;11.45;;;;;;;;;;5054352;28;20467;-46
2022/06/14 04:04:28;;;;;;;31.83;9.85;;;;;;;;;;5053783;28;20397;-46
2022/06/14 04:06:58;;;;;;;32.60;10.00;;;;;;;;;;5011392;28;20037;-48
2022/06/14 04:09:28;;;;;;;31.10;10.05;;;;;;;;;;5046516;28;20041;-47
2022/06/14 04:12:04;;;;;;;28.88;9.82;;;;;;;;;;5054217;28;20029;-47
2022/06/14 04:14:31;;;;;;;33.08;9.63;;;;;;;;;;5053505;28;20078;-45
2022/06/14 04:17:18;;;;;;;36.67;10.00;;;;;;;;;;5053604;28;20368;-46
2022/06/14 04:19:55;;;;;;;34.90;9.48;;;;;;;;;;5022882;28;20052;-48
2022/06/14 04:22:28;;;;;;;28.23;9.68;;;;;;;;;;5054069;28;20037;-46
2022/06/14 04:24:55;;;;;;;40.25;9.27;;;;;;;;;;5053105;28;20029;-45
2022/06/14 04:27:42;;;;;;;30.77;9.95;;;;;;;;;;5053806;28;20124;-50
2022/06/14 04:30:31;;;;;;;36.25;10.30;;;;;;;;;;5046794;28;20060;-49
2022/06/14 04:32:57;;;;;;;27.42;8.40;;;;;;;;;;5053865;28;20047;-50
2022/06/14 04:35:34;;;;;;;28.55;9.45;;;;;;;;;;5052029;28;20707;-46
2022/06/14 04:38:07;;;;;;;26.75;8.98;;;;;;;;;;5053289;28;20071;-49
2022/06/14 04:40:37;;;;;;;33.47;9.48;;;;;;;;;;5053665;28;20033;-50
2022/06/14 04:43:04;;;;;;;27.92;8.60;;;;;;;;;;5053738;28;20435;-52
2022/06/14 04:45:43;;;;;;;30.45;9.65;;;;;;;;;;5052171;28;20049;-53
2022/06/14 04:48:25;;;;;;;24.05;9.18;;;;;;;;;;5053830;28;20032;-49
2022/06/14 04:50:52;;;;;;;;;;;;;;;;;;5053809;28;20534;-50
2022/06/14 04:53:21;;;;;;;27.15;8.45;;;;;;;;;;5052915;28;20410;-52
2022/06/14 04:55:51;;;;;;;28.85;8.65;;;;;;;;;;5053287;28;20029;-49
2022/06/14 04:58:21;;;;;;;27.60;8.77;;;;;;;;;;5052705;28;20104;-49
2022/06/14 05:00:55;;;;;;;27.08;7.75;;;;;;;;;;5052655;28;20478;-52
2022/06/14 05:03:27;;;;;;;27.38;8.07;;;;;;;;;;5053460;28;20415;-52
2022/06/14 05:05:53;;;;;;;;;;;;;;;;;;5053214;28;20032;-51
2022/06/14 05:08:27;;;;;;;23.08;7.30;;;;;;;;;;5052980;28;19913;-50
2022/06/14 05:10:59;;;;;;;21.10;8.00;;;;;;;;;;5052515;28;20059;-49
2022/06/14 05:13:30;;;;;;;23.23;7.88;;;;;;;;;;5052959;28;20033;-49
2022/06/14 05:15:59;;;;;;;20.02;7.75;;;;;;;;;;5052309;28;20491;-52
2022/06/14 05:18:39;;;;;;;22.65;7.70;;;;;;;;;;5052738;28;20087;-50
2022/06/14 05:21:21;;;;;;;21.60;7.40;;;;;;;;;;5052895;28;20083;-49
2022/06/14 05:23:50;;;;;;;18.75;7.65;;;;;;;;;;5052680;28;20386;-51
2022/06/14 05:26:32;;;;;;;23.02;7.45;;;;;;;;;;5052447;28;20033;-51
2022/06/14 05:29:08;;;;;;;20.33;7.25;;;;;;;;;;5052312;28;20033;-50
2022/06/14 05:31:53;;;;;;;19.40;6.78;;;;;;;;;;5052418;28;20036;-51
2022/06/14 05:34:23;;;;;;;21.58;7.15;;;;;;;;;;5034105;28;20040;-52
2022/06/14 05:36:50;;;;;;;17.40;6.72;;;;;;;;;;5051837;28;20041;-51
2022/06/14 05:39:24;;;;;;;19.42;7.35;;;;;;;;;;5052854;28;20031;-52
2022/06/14 05:41:57;;;;;;;18.27;6.63;;;;;;;;;;5034688;28;20028;-50
2022/06/14 05:44:31;;;;;;;22.40;6.82;;;;;;;;;;5051439;28;20029;-48
2022/06/14 05:46:59;;;;;;;18.48;7.20;;;;;;;;;;5051677;28;20404;-46
2022/06/14 05:49:29;;;;;;;17.92;6.20;;;;;;;;;;5051743;28;20499;-46
2022/06/14 05:52:07;;;;;;;17.67;6.05;;;;;;;;;;5034548;28;20120;-49
2022/06/14 05:54:34;;;;;;;13.65;6.00;;;;;;;;;;5051925;28;20395;-50
2022/06/14 05:57:01;;;;;;;17.58;6.15;;;;;;;;;;5051939;28;20021;-46
2022/06/14 05:59:38;;;;;;;16.02;6.20;;;;;;;;;;5051627;28;20025;-47
2022/06/14 06:02:10;;;;;;;13.98;6.10;;;;;;;;;;5052181;28;20037;-45
2022/06/14 06:04:40;;;;;;;12.88;5.65;;;;;;;;;;5051605;28;20028;-47
2022/06/14 06:07:08;;;;;;;16.77;6.43;;;;;;;;;;5052021;28;20025;-46
2022/06/14 06:09:38;;;;;;;15.40;5.72;;;;;;;;;;5051665;28;20463;-48
2022/06/14 06:12:11;;;;;;;15.52;5.65;;;;;;;;;;5052325;28;20169;-45
2022/06/14 06:14:41;;;;;;;16.65;5.90;;;;;;;;;;5051849;28;20451;-48
2022/06/14 06:17:15;;;;;;;15.88;5.07;;;;;;;;;;5051273;28;20100;-47
2022/06/14 06:19:46;;;;;;;15.27;5.40;;;;;;;;;;5052299;28;20033;-47
2022/06/14 06:22:18;;;;;;;16.08;5.60;;;;;;;;;;5051326;28;20025;-47
2022/06/14 06:24:50;;;;;;;12.35;4.80;;;;;;;;;;5051812;28;20470;-50
2022/06/14 06:27:19;;;;;;;15.20;5.13;;;;;;;;;;5051445;28;20451;-49
2022/06/14 06:29:49;;;;;;;13.23;4.60;;;;;;;;;;5051433;28;20025;-47
2022/06/14 06:32:17;;;;;;;16.67;4.82;;;;;;;;;;5216823;22;20409;-56
2022/06/14 06:34:44;;;;;;;17.20;4.95;;;;;;;;;;5071975;28;20099;-55
2022/06/14 06:37:23;;;;;;;15.07;5.07;;;;;;;;;;5071696;28;20430;-55
2022/06/14 06:40:00;;;;;;;14.77;4.47;;;;;;;;;;5072070;28;20048;-56
2022/06/14 06:42:30;;;;;;;15.40;4.70;;;;;;;;;;5071084;28;20457;-56
2022/06/14 06:45:18;;;;;;;14.77;4.57;;;;;;;;;;5071728;28;20036;-54
2022/06/14 06:47:50;;;;;;;15.10;4.85;;;;;;;;;;5071340;28;20151;-54
2022/06/14 06:50:20;;;;;;;11.98;4.88;;;;;;;;;;5071541;28;20024;-51
2022/06/14 06:52:55;;;;;;;16.95;4.38;;;;;;;;;;5071457;28;20475;-54
2022/06/14 06:55:40;;;;;;;14.32;3.85;;;;;;;;;;5071071;28;20025;-54
2022/06/14 06:58:19;;;;;;;11.93;4.30;;;;;;;;;;5071617;28;20032;-52
2022/06/14 07:00:47;;;;;;;11.27;3.97;;;;;;;;;;5075111;28;20076;-53
2022/06/14 07:03:17;;;;;;;11.90;3.90;;;;;;;;;;5075448;28;20425;-54
2022/06/14 07:05:47;;;;;;;11.80;4.20;;;;;;;;;;5057524;28;20039;-53
2022/06/14 07:08:18;;;;;;;11.80;4.10;;;;;;;;;;5075417;28;20063;-54
2022/06/14 07:10:55;;;;;;;7.78;3.75;;;;;;;;;;5075406;28;20106;-53
2022/06/14 07:13:37;;;;;;;8.38;3.85;;;;;;;;;;5074503;28;20158;-56
2022/06/14 07:16:06;;;;;;;9.82;4.20;;;;;;;;;;5075566;28;20040;-56
2022/06/14 07:18:39;;;;;;;7.32;3.45;;;;;;;;;;5075336;28;20029;-55
2022/06/14 07:21:13;;;;;;;9.10;3.80;;;;;;;;;;5074490;28;20029;-56
2022/06/14 07:23:40;;;;;;;13.15;4.10;;;;;;;;;;5075224;28;20028;-55
2022/06/14 07:26:46;;;;;;;13.43;3.95;;;;;;;;;;5074569;28;20028;-55
2022/06/14 07:29:30;;;;;;;8.02;3.53;;;;;;;;;;4974320;28;20034;-55
2022/06/14 07:32:03;;;;;;;9.10;3.65;;;;;;;;;;4972904;28;20063;-56
2022/06/14 07:34:31;;;;;;;8.05;3.33;;;;;;;;;;5039524;28;20055;-56
2022/06/14 07:37:13;;;;;;;11.98;3.70;;;;;;;;;;5074319;28;20474;-55
2022/06/14 07:39:54;;;;;;;10.32;3.67;;;;;;;;;;5074996;28;20075;-56
2022/06/14 07:42:29;;;;;;;7.30;2.97;;;;;;;;;;5074148;28;20071;-55
2022/06/14 07:45:08;;;;;;;10.80;3.72;;;;;;;;;;5074651;28;20029;-55
2022/06/14 07:47:47;;;;;;;10.43;3.45;;;;;;;;;;5074567;28;20032;-55
2022/06/14 07:50:16;;;;;;;10.02;3.40;;;;;;;;;;5074519;28;20116;-56
2022/06/14 07:52:51;;;;;;;6.75;3.20;;;;;;;;;;5074763;28;20363;-55
2022/06/14 07:55:26;;;;;;;8.73;4.10;;;;;;;;;;5056549;28;20032;-55
2022/06/14 07:57:58;;;;;;;7.53;3.15;;;;;;;;;;5074660;28;20020;-55
2022/06/14 08:03:20;;;;;;;8.25;3.20;;;;;;;;;;5074981;28;20035;-54
2022/06/14 08:05:48;;;;;;;7.82;2.90;;;;;;;;;;5074082;28;20103;-55
2022/06/14 08:08:19;;;;;;;8.90;3.30;;;;;;;;;;5074509;28;20075;-56
2022/06/14 08:10:49;;;;;;;6.05;3.40;;;;;;;;;;5073875;28;20027;-56
2022/06/14 08:13:19;;;;;;;8.63;3.55;;;;;;;;;;5073768;28;20483;-56
2022/06/14 08:15:48;;;;;;;8.15;2.97;;;;;;;;;;5073963;28;20544;-55
2022/06/14 08:18:15;;;;;;;10.05;3.20;;;;;;;;;;5073624;28;20437;-55
2022/06/14 08:20:48;;;;;;;7.90;2.90;;;;;;;;;;5074355;28;20024;-55
2022/06/14 08:23:19;;;;;;;11.27;3.45;;;;;;;;;;5073607;28;20032;-55
2022/06/14 08:25:48;;;;;;;6.18;2.50;;;;;;;;;;5074263;28;20035;-55
2022/06/14 08:28:18;;;;;;;12.75;3.35;;;;;;;;;;5074002;28;20699;-55
2022/06/14 08:30:51;;;;;;;8.30;2.80;;;;;;;;;;5073712;28;20032;-53
2022/06/14 08:33:18;;;;;;;6.70;2.90;;;;;;;;;;5073662;28;20094;-55
2022/06/14 08:35:49;;;;;;;7.15;2.95;;;;;;;;;;5073758;28;20025;-53
2022/06/14 08:38:19;;;;;;;8.48;2.88;;;;;;;;;;5073707;28;20059;-55
2022/06/14 08:41:01;;;;;;;8.30;2.47;;;;;;;;;;5073960;28;20390;-56
2022/06/14 08:43:28;;;;;;;10.00;3.30;;;;;;;;;;5072786;28;20033;-55
2022/06/14 08:45:55;;;;;;;7.10;3.25;;;;;;;;;;5073235;28;20021;-56
2022/06/14 08:48:38;;;;;;;8.52;2.30;;;;;;;;;;5073501;28;20029;-55
2022/06/14 08:51:06;;;;;;;10.00;2.80;;;;;;;;;;5072985;28;20390;-55
2022/06/14 08:53:42;;;;;;;8.10;2.83;;;;;;;;;;5073603;28;20040;-56
2022/06/14 08:56:12;;;;;;;9.52;2.80;;;;;;;;;;5072905;28;20029;-54
2022/06/14 08:58:57;;;;;;;6.68;2.70;;;;;;;;;;5070804;28;20548;-51
2022/06/14 09:01:30;;;;;;;6.80;2.90;;;;;;;;;;5072095;28;20036;-55
2022/06/14 09:04:06;;;;;;;8.75;2.90;;;;;;;;;;5072252;28;20059;-54
2022/06/14 09:06:33;;;;;;;7.25;3.08;;;;;;;;;;5071261;28;20449;-53
2022/06/14 09:09:14;;;;;;;7.72;2.33;;;;;;;;;;5072699;28;20039;-55
2022/06/14 09:11:53;;;;;;;6.85;2.80;;;;;;;;;;5073196;28;20425;-54
2022/06/14 09:14:20;;;;;;;9.10;2.30;;;;;;;;;;5071811;28;20036;-53
2022/06/14 09:16:49;;;;;;;8.95;2.50;;;;;;;;;;5073059;28;20035;-54
2022/06/14 09:19:27;;;;;;;8.05;2.42;;;;;;;;;;5070638;28;20028;-55
2022/06/14 09:21:54;;;;;;;8.52;2.50;;;;;;;;;;5070744;28;20107;-53
2022/06/14 09:24:21;;;;;;;7.82;2.30;;;;;;;;;;5070779;28;20028;-53
2022/06/14 09:27:07;;;;;;;7.82;2.42;;;;;;;;;;5071661;28;20024;-51
2022/06/14 09:29:40;;;;;;;10.50;2.92;;;;;;;;;;5071754;28;20111;-49
2022/06/14 09:32:25;;;;;;;8.75;2.63;;;;;;;;;;5070192;28;20406;-55
2022/06/14 09:35:10;;;;;;;10.38;2.78;;;;;;;;;;5068958;28;20040;-57
2022/06/14 09:37:55;;;;;;;8.45;2.28;;;;;;;;;;5070388;28;20025;-54
2022/06/14 09:40:48;;;;;;;8.57;3.20;;;;;;;;;;5084344;28;20493;-56
2022/06/14 09:43:23;;;;;;;9.40;2.20;;;;;;;;;;5056901;28;20067;-57
2022/06/14 09:45:56;;;;;;;7.85;3.17;;;;;;;;;;5071373;28;20028;-57
2022/06/14 09:48:49;;;;;;;9.20;2.53;;;;;;;;;;5072053;28;20024;-57
2022/06/14 09:51:34;;;;;;;8.80;2.65;;;;;;;;;;5032695;28;20047;-57
2022/06/14 09:54:04;;;;;;;4.97;2.35;;;;;;;;;;5068731;28;20033;-57
2022/06/14 09:56:56;;;;;;;9.48;2.70;;;;;;;;;;5068725;28;20143;-57
2022/06/14 10:00:01;;;;;;;11.82;2.55;;;;;;;;;;5069740;28;20070;-56
2022/06/14 10:02:28;;;;;;;8.95;2.40;;;;;;;;;;4968842;28;20501;-56
2022/06/14 10:05:01;;;;;;;7.97;2.50;;;;;;;;;;4975222;28;20485;-55
2022/06/14 10:07:46;;;;;;;10.88;2.83;;;;;;;;;;5021789;28;20048;-56
2022/06/14 10:10:13;;;;;;;9.07;1.98;;;;;;;;;;5071745;28;20067;-54
2022/06/14 10:12:58;;;;;;;8.50;2.50;;;;;;;;;;5071699;28;20514;-55
2022/06/14 10:15:28;;;;;;;10.90;2.80;;;;;;;;;;5070754;28;20170;-56
2022/06/14 10:18:04;;;;;;;7.43;2.50;;;;;;;;;;5072045;28;20033;-51
2022/06/14 10:20:34;;;;;;;5.88;2.40;;;;;;;;;;5071564;28;20060;-57
2022/06/14 10:23:19;;;;;;;10.75;2.35;;;;;;;;;;5073402;28;20032;-57
2022/06/14 10:28:42;;;;;;;12.30;3.05;;;;;;;;;;5091217;28;20050;-58
2022/06/14 10:31:20;;;;;;;21.42;3.20;;;;;;;;;;5090019;28;20020;-57
2022/06/14 10:34:16;;;;;;;13.88;2.95;;;;;;;;;;5092373;28;20032;-60
2022/06/14 10:37:01;;;;;;;16.58;3.00;;;;;;;;;;5074453;28;20082;-59
2022/06/14 10:39:55;;;;;;;15.88;2.85;;;;;;;;;;5095011;28;20378;-59
2022/06/14 10:42:28;;;;;;;17.63;3.70;;;;;;;;;;5058360;28;20040;-57
2022/06/14 10:45:12;;;;;;;15.77;3.38;;;;;;;;;;5095325;28;20024;-57
2022/06/14 10:47:51;;;;;;;21.35;3.45;;;;;;;;;;5096098;28;20127;-58
2022/06/14 10:50:37;;;;;;;12.55;2.83;;;;;;;;;;5096066;28;20039;-58
2022/06/14 10:53:07;;;;;;;15.18;3.08;;;;;;;;;;5095332;28;20063;-57
2022/06/14 10:55:58;;;;;;;10.25;2.72;;;;;;;;;;5096200;28;20111;-56
2022/06/14 10:58:35;;;;;;;13.13;3.15;;;;;;;;;;5095908;28;20032;-57
2022/06/14 11:01:25;;;;;;;19.42;2.90;;;;;;;;;;5095692;28;20032;-58
2022/06/14 11:04:24;;;;;;;14.18;2.90;;;;;;;;;;5095580;28;20067;-58
2022/06/14 11:06:51;;;;;;;12.75;3.05;;;;;;;;;;5039988;28;20040;-56
2022/06/14 11:09:28;;;;;;;8.65;3.13;;;;;;;;;;5096010;28;20032;-54
2022/06/14 11:12:13;;;;;;;12.85;2.83;;;;;;;;;;5094865;28;20078;-54
2022/06/14 11:14:43;;;;;;;13.15;2.55;;;;;;;;;;5095326;28;20079;-53
2022/06/14 11:17:21;;;;;;;19.05;3.33;;;;;;;;;;5095303;28;20032;-53
2022/06/14 11:20:15;;;;;;;24.02;2.80;;;;;;;;;;5090098;28;20806;-56
2022/06/14 11:22:44;;;;;;;35.75;4.95;;;;;;;;;;5074473;28;20513;-54
2022/06/14 11:25:30;;;;;;;43.83;5.00;;;;;;;;;;5075050;28;20021;-55
2022/06/14 11:28:10;;;;;;;76.00;7.53;;;;;;;;;;5075260;28;20025;-49
2022/06/14 11:30:55;;;;;;;81.53;7.72;;;;;;;;;;5075091;28;20029;-53
2022/06/14 11:33:25;;;;;;;85.45;7.95;;;;;;;;;;5075049;28;20032;-56
2022/06/14 11:35:59;;;;;;;216.38;19.00;;;;;;;;;;5075014;28;20025;-57
2022/06/14 11:38:49;;;;;;;218.75;21.42;;;;;;;;;;5075023;28;20028;-57
2022/06/14 11:41:19;;;;;;;100.30;10.55;;;;;;;;;;5075030;28;20394;-57
2022/06/14 11:43:45;;;;;;;91.70;8.90;;;;;;;;;;5074693;28;20021;-56
2022/06/14 11:46:20;;;;;;;76.78;8.00;;;;;;;;;;5074382;28;20044;-57
2022/06/14 11:48:55;;;;;;;61.33;8.02;;;;;;;;;;5074994;28;20059;-57
2022/06/14 11:51:25;;;;;;;77.60;8.35;;;;;;;;;;5074810;28;20025;-56
2022/06/14 11:53:52;;;;;;;60.88;8.38;;;;;;;;;;5074795;28;20510;-56
2022/06/14 11:56:19;;;;;;;92.32;11.70;;;;;;;;;;5074745;28;20024;-55
2022/06/14 11:58:57;;;;;;;636.95;41.35;;;;;;;;;;5074808;28;20027;-55
2022/06/14 12:01:49;;;;;;;186.07;18.80;;;;;;;;;;5074721;28;20032;-54
2022/06/14 12:04:39;;;;;;;216.05;22.83;;;;;;;;;;5074366;28;20119;-57
2022/06/14 12:07:25;;;;;;;193.82;21.23;;;;;;;;;;5074499;28;20021;-56
2022/06/14 12:10:01;;;;;;;156.32;18.50;;;;;;;;;;5074538;28;20028;-56
2022/06/14 12:12:40;;;;;;;116.82;13.60;;;;;;;;;;5072609;28;20032;-57
2022/06/14 12:15:14;;;;;;;148.40;15.90;;;;;;;;;;5073433;28;20095;-56
2022/06/14 12:17:42;;;;;;;132.68;16.13;;;;;;;;;;5074800;28;20021;-55
2022/06/14 12:20:14;;;;;;;123.65;17.17;;;;;;;;;;5074363;28;20068;-55
2022/06/14 12:22:44;;;;;;;139.90;19.63;;;;;;;;;;5055352;28;20041;-53
2022/06/14 12:28:03;;;;;;;137.68;18.73;;;;;;;;;;5073380;28;20620;-57
2022/06/14 12:30:33;;;;;;;122.13;19.38;;;;;;;;;;5074053;28;20020;-58
2022/06/14 12:33:02;;;;;;;111.65;17.13;;;;;;;;;;5073625;28;20083;-55
2022/06/14 12:35:30;;;;;;;120.93;17.83;;;;;;;;;;5073091;28;20032;-57
2022/06/14 12:38:12;;;;;;;126.78;17.67;;;;;;;;;;5073852;28;20016;-56
2022/06/14 12:40:45;;;;;;;110.20;17.77;;;;;;;;;;5073053;28;20028;-54
2022/06/14 12:43:12;;;;;;;117.65;17.02;;;;;;;;;;5073671;28;20024;-56
2022/06/14 12:45:39;;;;;;;88.20;15.95;;;;;;;;;;5073671;28;20043;-57
2022/06/14 12:48:24;;;;;;;88.13;15.60;;;;;;;;;;5073128;28;20021;-56
2022/06/14 12:50:55;;;;;;;101.43;15.50;;;;;;;;;;5073676;28;20020;-54
2022/06/14 12:53:34;;;;;;;85.65;15.02;;;;;;;;;;5072715;28;20025;-57
2022/06/14 12:56:13;;;;;;;85.13;14.75;;;;;;;;;;5073247;28;20024;-56
2022/06/14 12:58:50;;;;;;;91.72;14.52;;;;;;;;;;5072896;28;20382;-57
2022/06/14 13:01:35;;;;;;;88.05;13.68;;;;;;;;;;5073054;28;20048;-57
2022/06/14 13:04:09;;;;;;;79.18;14.18;;;;;;;;;;5073175;28;20028;-56
2022/06/14 13:06:53;;;;;;;83.65;12.77;;;;;;;;;;5072946;28;20027;-56
2022/06/14 13:09:23;;;;;;;76.80;12.50;;;;;;;;;;5073107;28;20083;-57
2022/06/14 13:12:00;;;;;;;69.95;12.55;;;;;;;;;;5072870;28;20048;-56
2022/06/14 13:14:31;;;;;;;77.13;12.80;;;;;;;;;;5072692;28;20033;-56
2022/06/14 13:17:07;;;;;;;69.95;12.95;;;;;;;;;;5072720;28;20103;-57
2022/06/14 13:20:03;;;;;;;67.20;12.68;;;;;;;;;;5079811;28;20079;-58
2022/06/14 13:22:45;;;;;;;64.47;12.70;;;;;;;;;;5051623;28;20387;-56
2022/06/14 13:25:12;;;;;;;67.78;12.07;;;;;;;;;;5072223;28;20032;-56
2022/06/14 13:27:59;;;;;;;66.05;13.00;;;;;;;;;;5072360;28;20024;-57
2022/06/14 13:30:42;;;;;;;63.95;11.48;;;;;;;;;;5071117;28;20508;-58
2022/06/14 13:33:30;;;;;;;63.17;11.57;;;;;;;;;;5069687;28;20060;-57
2022/06/14 13:36:02;;;;;;;61.75;11.90;;;;;;;;;;5054542;28;20510;-57
2022/06/14 13:38:33;;;;;;;59.95;11.55;;;;;;;;;;5068260;28;20030;-57
2022/06/14 13:41:16;;;;;;;56.78;10.00;;;;;;;;;;5093285;28;20034;-57
2022/06/14 13:43:50;;;;;;;59.00;10.20;;;;;;;;;;5093021;28;20102;-56
2022/06/14 13:46:33;;;;;;;56.63;11.95;;;;;;;;;;5092266;28;20028;-58
2022/06/14 13:49:19;;;;;;;57.83;10.38;;;;;;;;;;5091258;28;20024;-56
2022/06/14 13:52:00;;;;;;;66.95;11.40;;;;;;;;;;5092141;28;20118;-57
2022/06/14 13:54:38;;;;;;;59.20;11.10;;;;;;;;;;5091653;28;20032;-57
2022/06/14 13:57:40;;;;;;;60.42;10.52;;;;;;;;;;5090998;28;20139;-58
2022/06/14 14:00:17;;;;;;;66.78;11.15;;;;;;;;;;5037567;28;20036;-57
2022/06/14 14:02:48;;;;;;;56.13;10.18;;;;;;;;;;5090903;28;20023;-58
2022/06/14 14:05:27;;;;;;;62.78;10.20;;;;;;;;;;5091569;28;20032;-57
2022/06/14 14:08:03;;;;;;;54.03;10.18;;;;;;;;;;5091199;28;20098;-58
2022/06/14 14:10:36;;;;;;;47.03;8.57;;;;;;;;;;5091383;28;20048;-55
2022/06/14 14:13:11;;;;;;;61.67;10.75;;;;;;;;;;5091657;28;20032;-58
2022/06/14 14:15:38;;;;;;;48.83;9.82;;;;;;;;;;5091226;28;20020;-59
2022/06/14 14:18:12;;;;;;;55.70;9.38;;;;;;;;;;5091875;28;20016;-58
2022/06/14 14:20:46;;;;;;;44.85;9.73;;;;;;;;;;5090480;28;20107;-57
2022/06/14 14:23:29;;;;;;;49.70;8.88;;;;;;;;;;5091409;28;20027;-58
2022/06/14 14:26:11;;;;;;;55.20;9.20;;;;;;;;;;5087754;28;20024;-55
2022/06/14 14:28:53;;;;;;;49.83;8.90;;;;;;;;;;5068606;28;20524;-52
2022/06/14 14:31:19;;;;;;;51.97;10.00;;;;;;;;;;5070945;28;20514;-57
2022/06/14 14:33:55;;;;;;;36.10;7.97;;;;;;;;;;5070579;28;20032;-57
2022/06/14 14:36:40;;;;;;;55.58;9.73;;;;;;;;;;5070165;28;20099;-57
2022/06/14 14:39:24;;;;;;;60.42;10.48;;;;;;;;;;5075577;28;20063;-57
2022/06/14 14:42:12;;;;;;;53.58;9.68;;;;;;;;;;5069432;28;20397;-55
2022/06/14 14:44:40;;;;;;;45.97;9.23;;;;;;;;;;5070186;28;20041;-55
2022/06/14 14:47:15;;;;;;;39.65;8.27;;;;;;;;;;5070768;28;20025;-58
2022/06/14 14:49:47;;;;;;;53.63;10.57;;;;;;;;;;5071234;28;20369;-56
2022/06/14 14:52:22;;;;;;;46.38;9.05;;;;;;;;;;5069980;28;20043;-56
2022/06/14 14:54:49;;;;;;;46.15;9.07;;;;;;;;;;5071370;28;20028;-58
2022/06/14 14:57:16;;;;;;;59.55;10.23;;;;;;;;;;5052408;28;20072;-59
2022/06/14 14:59:53;;;;;;;56.55;9.98;;;;;;;;;;5052930;28;20098;-55
2022/06/14 15:05:21;;;;;;;50.55;9.07;;;;;;;;;;5071765;28;20398;-57
2022/06/14 15:07:52;;;;;;;51.75;8.88;;;;;;;;;;5071136;28;20521;-56
2022/06/14 15:10:22;;;;;;;60.72;9.60;;;;;;;;;;5071057;28;20029;-59
2022/06/14 15:12:59;;;;;;;57.53;9.85;;;;;;;;;;5070114;28;20028;-58
2022/06/14 15:15:29;;;;;;;58.53;9.27;;;;;;;;;;5071082;28;20027;-59
2022/06/14 15:21:02;;;;;;;61.67;9.00;;;;;;;;;;5073114;28;20048;-57
2022/06/14 15:23:43;;;;;;;63.75;9.70;;;;;;;;;;5074378;28;20100;-57
2022/06/14 15:26:17;;;;;;;58.65;10.90;;;;;;;;;;5073697;28;20578;-58
2022/06/14 15:28:44;;;;;;;64.15;9.27;;;;;;;;;;5074218;28;20052;-57
2022/06/14 15:31:30;;;;;;;56.63;9.75;;;;;;;;;;5074434;28;20021;-58
2022/06/14 15:34:00;;;;;;;58.10;8.88;;;;;;;;;;5073763;28;20037;-57
2022/06/14 15:36:37;;;;;;;52.80;9.15;;;;;;;;;;5073868;28;20500;-60
2022/06/14 15:39:04;;;;;;;54.58;8.98;;;;;;;;;;5074367;28;20071;-57